createdAt,value
2018-01-29T00:00:11.682Z,60.02
2018-01-29T00:01:20.391Z,59.64
2018-01-29T00:02:29.091Z,59.92
2018-01-29T00:03:38.064Z,59.73
2018-01-29T00:04:47.032Z,59.92
2018-01-29T00:05:56.005Z,59.83
2018-01-29T00:07:05.245Z,59.73
2018-01-29T00:08:14.219Z,59.73
2018-01-29T00:09:23.189Z,59.73
2018-01-29T00:10:32.160Z,59.83
2018-01-29T00:11:41.400Z,59.92
2018-01-29T00:12:50.636Z,59.92
2018-01-29T00:13:59.604Z,59.92
2018-01-29T00:15:08.851Z,60.02
2018-01-29T00:16:17.821Z,59.92
2018-01-29T00:17:27.060Z,59.83
2018-01-29T00:18:36.302Z,59.25
2018-01-29T00:19:45.268Z,59.16
2018-01-29T00:20:54.238Z,59.25
2018-01-29T00:22:03.207Z,59.34
2018-01-29T00:23:12.443Z,59.34
2018-01-29T00:24:21.411Z,59.34
2018-01-29T00:25:30.120Z,59.16
2018-01-29T00:26:39.092Z,59.34
2018-01-29T00:27:47.798Z,59.34
2018-01-29T00:28:56.502Z,59.34
2018-01-29T00:30:05.208Z,59.34
2018-01-29T00:31:14.445Z,59.34
2018-01-29T00:32:23.415Z,59.34
2018-01-29T00:33:32.387Z,59.25
2018-01-29T00:34:41.091Z,59.34
2018-01-29T00:35:49.793Z,59.25
2018-01-29T00:36:58.498Z,59.54
2018-01-29T00:38:07.473Z,59.64
2018-01-29T00:39:16.440Z,59.73
2018-01-29T00:40:25.150Z,59.73
2018-01-29T00:41:34.123Z,59.64
2018-01-29T00:42:42.828Z,59.64
2018-01-29T00:43:52.066Z,59.73
2018-01-29T00:45:01.038Z,59.54
2018-01-29T00:46:10.009Z,59.44
2018-01-29T00:47:19.250Z,59.34
2018-01-29T00:48:28.493Z,59.64
2018-01-29T00:49:37.461Z,59.54
2018-01-29T00:50:46.166Z,59.44
2018-01-29T00:51:55.135Z,59.64
2018-01-29T00:53:03.838Z,59.73
2018-01-29T00:54:13.078Z,59.54
2018-01-29T00:55:21.778Z,59.54
2018-01-29T00:56:30.482Z,59.34
2018-01-29T00:57:39.460Z,59.34
2018-01-29T00:58:48.429Z,59.16
2018-01-29T00:59:57.133Z,59.16
2018-01-29T01:01:05.836Z,59.34
2018-01-29T01:02:14.805Z,59.16
2018-01-29T01:03:23.506Z,59.16
2018-01-29T01:04:32.476Z,59.16
2018-01-29T01:05:41.179Z,59.16
2018-01-29T01:06:50.419Z,59.16
2018-01-29T01:07:59.392Z,59.16
2018-01-29T01:09:08.635Z,59.16
2018-01-29T01:10:18.135Z,59.16
2018-01-29T01:11:27.374Z,59.16
2018-01-29T01:12:36.078Z,59.16
2018-01-29T01:13:44.782Z,58.67
2018-01-29T01:14:54.021Z,58.67
2018-01-29T01:16:03.268Z,58.87
2018-01-29T01:17:12.239Z,58.87
2018-01-29T01:18:21.209Z,58.87
2018-01-29T01:19:30.186Z,58.87
2018-01-29T01:20:39.159Z,58.96
2018-01-29T01:21:48.403Z,59.06
2018-01-29T01:22:57.106Z,58.67
2018-01-29T01:24:06.075Z,59.06
2018-01-29T01:25:15.045Z,59.06
2018-01-29T01:26:24.015Z,59.06
2018-01-29T01:27:32.719Z,59.03
2018-01-29T01:28:41.420Z,59.03
2018-01-29T01:29:50.129Z,58.96
2018-01-29T01:30:59.097Z,59.16
2018-01-29T01:32:07.803Z,59.25
2018-01-29T01:33:16.771Z,59.16
2018-01-29T01:34:26.010Z,59.25
2018-01-29T01:35:34.978Z,59.06
2018-01-29T01:36:43.680Z,58.96
2018-01-29T01:37:52.651Z,59.25
2018-01-29T01:39:01.888Z,59.16
2018-01-29T01:40:11.129Z,58.67
2018-01-29T01:41:20.635Z,58.96
2018-01-29T01:42:29.603Z,58.39
2018-01-29T01:43:38.573Z,58.58
2018-01-29T01:44:47.548Z,58.77
2018-01-29T01:45:56.518Z,58.96
2018-01-29T01:47:05.226Z,58.77
2018-01-29T01:48:14.203Z,58.77
2018-01-29T01:49:23.173Z,58.87
2018-01-29T01:50:32.420Z,58.77
2018-01-29T01:51:41.390Z,58.77
2018-01-29T01:52:50.627Z,58.77
2018-01-29T01:53:59.913Z,58.87
2018-01-29T01:55:09.416Z,58.77
2018-01-29T01:56:18.654Z,58.87
2018-01-29T01:57:27.623Z,58.87
2018-01-29T01:58:36.327Z,58.96
2018-01-29T01:59:45.573Z,58.96
2018-01-29T02:00:54.820Z,58.87
2018-01-29T02:02:04.325Z,58.96
2018-01-29T02:03:13.029Z,58.84
2018-01-29T02:04:21.999Z,59.25
2018-01-29T02:05:30.966Z,58.87
2018-01-29T02:06:40.205Z,59.06
2018-01-29T02:07:48.909Z,59.06
2018-01-29T02:08:58.153Z,59.06
2018-01-29T02:10:06.852Z,58.87
2018-01-29T02:11:15.825Z,59.16
2018-01-29T02:12:24.799Z,58.96
2018-01-29T02:13:34.308Z,58.67
2018-01-29T02:14:43.011Z,58.96
2018-01-29T02:15:51.979Z,58.96
2018-01-29T02:17:00.949Z,58.96
2018-01-29T02:18:09.651Z,58.58
2018-01-29T02:19:18.353Z,58.48
2018-01-29T02:20:27.061Z,58.96
2018-01-29T02:21:36.033Z,58.45
2018-01-29T02:22:45.005Z,58.48
2018-01-29T02:23:54.245Z,58.48
2018-01-29T02:25:03.219Z,58.45
2018-01-29T02:26:12.193Z,58.64
2018-01-29T02:27:21.162Z,58.29
2018-01-29T02:28:30.134Z,58.48
2018-01-29T02:29:39.103Z,58.36
2018-01-29T02:30:48.081Z,58.45
2018-01-29T02:31:57.056Z,58.55
2018-01-29T02:33:06.297Z,58.48
2018-01-29T02:34:15.814Z,58.55
2018-01-29T02:35:25.060Z,58.45
2018-01-29T02:36:34.567Z,58.48
2018-01-29T02:37:43.541Z,58.64
2018-01-29T02:38:52.778Z,58.74
2018-01-29T02:40:01.480Z,58.84
2018-01-29T02:41:10.185Z,58.96
2018-01-29T02:42:19.153Z,58.67
2018-01-29T02:43:27.859Z,58.74
2018-01-29T02:44:37.097Z,58.64
2018-01-29T02:45:46.072Z,58.45
2018-01-29T02:46:54.777Z,58.26
2018-01-29T02:48:03.484Z,58.45
2018-01-29T02:49:12.192Z,58.36
2018-01-29T02:50:21.431Z,58.48
2018-01-29T02:51:30.410Z,58.64
2018-01-29T02:52:39.395Z,58.55
2018-01-29T02:53:48.908Z,58.64
2018-01-29T02:54:57.611Z,58.64
2018-01-29T02:56:06.588Z,58.45
2018-01-29T02:57:16.636Z,58.45
2018-01-29T02:58:25.338Z,58.45
2018-01-29T02:59:34.307Z,58.36
2018-01-29T03:00:43.009Z,58.64
2018-01-29T03:01:52.247Z,58.55
2018-01-29T03:03:01.486Z,58.36
2018-01-29T03:04:10.461Z,58.39
2018-01-29T03:05:19.432Z,58.36
2018-01-29T03:06:28.405Z,58.58
2018-01-29T03:07:37.110Z,58.39
2018-01-29T03:08:46.086Z,58.36
2018-01-29T03:10:01.582Z,58.36
2018-01-29T03:11:10.812Z,58.45
2018-01-29T03:12:19.776Z,58.55
2018-01-29T03:13:29.004Z,58.45
2018-01-29T03:14:37.700Z,58.45
2018-01-29T03:15:46.663Z,58.55
2018-01-29T03:16:55.626Z,58.64
2018-01-29T03:18:04.320Z,57.97
2018-01-29T03:19:13.015Z,58.26
2018-01-29T03:20:21.705Z,57.97
2018-01-29T03:21:30.930Z,58.17
2018-01-29T03:22:40.203Z,58.17
2018-01-29T03:23:48.896Z,57.68
2018-01-29T03:24:57.587Z,58.07
2018-01-29T03:26:06.553Z,58.07
2018-01-29T03:27:15.514Z,57.68
2018-01-29T03:28:24.209Z,57.88
2018-01-29T03:29:32.903Z,57.5
2018-01-29T03:30:41.878Z,57.5
2018-01-29T03:31:51.379Z,57.5
2018-01-29T03:33:00.074Z,57.68
2018-01-29T03:34:09.297Z,57.78
2018-01-29T03:35:18.013Z,57.78
2018-01-29T03:36:27.245Z,57.68
2018-01-29T03:37:36.203Z,57.88
2018-01-29T03:38:44.896Z,57.78
2018-01-29T03:39:53.588Z,57.97
2018-01-29T03:41:02.814Z,57.78
2018-01-29T03:42:11.778Z,57.88
2018-01-29T03:43:21.267Z,58.07
2018-01-29T03:44:29.960Z,57.97
2018-01-29T03:45:39.188Z,57.78
2018-01-29T03:46:47.883Z,58.07
2018-01-29T03:47:56.580Z,58.07
2018-01-29T03:49:05.536Z,57.78
2018-01-29T03:50:14.762Z,57.78
2018-01-29T03:51:23.725Z,57.97
2018-01-29T03:52:32.949Z,58.07
2018-01-29T03:53:41.906Z,58.17
2018-01-29T03:54:51.130Z,58.07
2018-01-29T03:56:00.090Z,57.97
2018-01-29T03:57:08.788Z,58.07
2018-01-29T03:58:17.745Z,57.97
2018-01-29T03:59:26.439Z,57.97
2018-01-29T04:00:35.398Z,57.97
2018-01-29T04:01:44.090Z,57.88
2018-01-29T04:02:53.585Z,57.88
2018-01-29T04:04:02.279Z,57.97
2018-01-29T04:05:11.503Z,57.97
2018-01-29T04:06:20.198Z,57.88
2018-01-29T04:07:28.889Z,57.78
2018-01-29T04:08:38.115Z,57.5
2018-01-29T04:09:47.080Z,57.5
2018-01-29T04:10:55.766Z,57.5
2018-01-29T04:12:04.460Z,57.4
2018-01-29T04:13:13.156Z,57.5
2018-01-29T04:14:21.848Z,57.5
2018-01-29T04:15:30.812Z,57.4
2018-01-29T04:16:39.506Z,57.88
2018-01-29T04:17:48.196Z,57.4
2018-01-29T04:18:56.891Z,57.78
2018-01-29T04:20:05.584Z,57.88
2018-01-29T04:21:14.542Z,57.97
2018-01-29T04:22:23.234Z,57.97
2018-01-29T04:23:32.197Z,57.5
2018-01-29T04:24:41.156Z,57.3
2018-01-29T04:25:50.403Z,57.78
2018-01-29T04:26:59.093Z,57.5
2018-01-29T04:28:08.053Z,57.5
2018-01-29T04:29:16.745Z,57.97
2018-01-29T04:30:25.717Z,57.97
2018-01-29T04:31:34.413Z,57.68
2018-01-29T04:32:43.104Z,57.78
2018-01-29T04:33:52.062Z,57.97
2018-01-29T04:35:00.753Z,57.97
2018-01-29T04:36:10.300Z,57.97
2018-01-29T04:37:19.264Z,57.97
2018-01-29T04:38:27.953Z,57.97
2018-01-29T04:39:37.182Z,57.97
2018-01-29T04:40:45.882Z,57.97
2018-01-29T04:41:55.102Z,57.78
2018-01-29T04:43:04.059Z,57.97
2018-01-29T04:44:13.292Z,57.78
2018-01-29T04:45:21.983Z,57.97
2018-01-29T04:46:30.678Z,57.78
2018-01-29T04:47:39.666Z,57.88
2018-01-29T04:48:48.637Z,57.78
2018-01-29T04:49:57.861Z,57.88
2018-01-29T04:51:07.094Z,57.78
2018-01-29T04:52:16.049Z,57.78
2018-01-29T04:53:25.012Z,57.97
2018-01-29T04:54:34.237Z,57.97
2018-01-29T04:55:42.934Z,57.97
2018-01-29T04:56:51.893Z,57.97
2018-01-29T04:58:01.117Z,57.97
2018-01-29T04:59:09.808Z,58.17
2018-01-29T05:00:18.502Z,57.88
2018-01-29T05:01:27.469Z,57.97
2018-01-29T05:02:36.957Z,57.78
2018-01-29T05:03:45.922Z,57.97
2018-01-29T05:04:55.141Z,57.97
2018-01-29T05:06:03.838Z,57.97
2018-01-29T05:07:12.528Z,57.97
2018-01-29T05:08:21.222Z,57.97
2018-01-29T05:09:29.914Z,57.97
2018-01-29T05:10:39.410Z,57.78
2018-01-29T05:11:48.899Z,57.78
2018-01-29T05:12:57.858Z,57.68
2018-01-29T05:14:07.084Z,57.97
2018-01-29T05:15:16.315Z,57.78
2018-01-29T05:16:25.274Z,57.97
2018-01-29T05:17:34.496Z,57.88
2018-01-29T05:18:43.726Z,57.68
2018-01-29T05:19:52.421Z,57.97
2018-01-29T05:21:01.380Z,57.4
2018-01-29T05:22:10.605Z,57.78
2018-01-29T05:23:19.294Z,57.88
2018-01-29T05:24:28.524Z,57.78
2018-01-29T05:25:37.218Z,57.88
2018-01-29T05:26:46.176Z,57.78
2018-01-29T05:27:55.138Z,57.4
2018-01-29T05:29:04.097Z,57.78
2018-01-29T05:30:13.323Z,57.5
2018-01-29T05:31:22.282Z,57.3
2018-01-29T05:32:31.238Z,57.11
2018-01-29T05:33:40.193Z,57.21
2018-01-29T05:34:49.429Z,57.59
2018-01-29T05:35:58.658Z,57.3
2018-01-29T05:37:07.353Z,57.3
2018-01-29T05:38:16.316Z,57.78
2018-01-29T05:39:25.285Z,57.97
2018-01-29T05:40:34.245Z,57.78
2018-01-29T05:41:43.206Z,57.78
2018-01-29T05:42:52.166Z,57.78
2018-01-29T05:44:01.128Z,57.78
2018-01-29T05:45:09.820Z,57.88
2018-01-29T05:46:18.780Z,57.97
2018-01-29T05:47:27.739Z,57.78
2018-01-29T05:48:36.965Z,57.97
2018-01-29T05:49:45.926Z,57.88
2018-01-29T05:50:54.620Z,57.78
2018-01-29T05:52:03.315Z,57.88
2018-01-29T05:53:12.006Z,57.78
2018-01-29T05:54:21.496Z,57.97
2018-01-29T05:55:30.190Z,57.3
2018-01-29T05:56:38.883Z,57.5
2018-01-29T05:57:47.576Z,57.68
2018-01-29T05:58:56.537Z,57.88
2018-01-29T06:00:05.500Z,57.97
2018-01-29T06:01:14.460Z,57.88
2018-01-29T06:02:23.419Z,57.97
2018-01-29T06:03:32.380Z,57.97
2018-01-29T06:04:41.073Z,57.88
2018-01-29T06:05:50.039Z,57.97
2018-01-29T06:06:59.533Z,58.26
2018-01-29T06:08:08.759Z,57.78
2018-01-29T06:09:17.460Z,57.5
2018-01-29T06:10:26.427Z,57.59
2018-01-29T06:11:35.666Z,57.78
2018-01-29T06:12:44.361Z,57.5
2018-01-29T06:13:53.054Z,57.4
2018-01-29T06:15:02.282Z,57.4
2018-01-29T06:16:11.244Z,57.5
2018-01-29T06:17:19.936Z,57.78
2018-01-29T06:18:28.899Z,57.59
2018-01-29T06:19:37.590Z,57.88
2018-01-29T06:20:46.553Z,57.97
2018-01-29T06:21:55.512Z,57.01
2018-01-29T06:23:05.269Z,57.21
2018-01-29T06:24:14.235Z,56.82
2018-01-29T06:25:23.193Z,56.73
2018-01-29T06:26:32.427Z,57.18
2018-01-29T06:27:41.114Z,57.3
2018-01-29T06:28:50.112Z,57.3
2018-01-29T06:29:59.071Z,57.59
2018-01-29T06:31:08.562Z,57.3
2018-01-29T06:32:17.790Z,58.17
2018-01-29T06:33:26.485Z,57.97
2018-01-29T06:34:35.977Z,57.78
2018-01-29T06:35:44.670Z,57.88
2018-01-29T06:36:53.366Z,57.97
2018-01-29T06:38:02.059Z,57.68
2018-01-29T06:39:11.020Z,57.59
2018-01-29T06:40:19.976Z,57.88
2018-01-29T06:41:28.934Z,57.97
2018-01-29T06:42:38.433Z,57.97
2018-01-29T06:43:47.396Z,57.97
2018-01-29T06:44:56.353Z,57.78
2018-01-29T06:46:05.046Z,58.07
2018-01-29T06:47:13.741Z,57.78
2018-01-29T06:48:22.437Z,57.88
2018-01-29T06:49:31.162Z,57.88
2018-01-29T06:50:40.661Z,57.88
2018-01-29T06:51:49.617Z,57.88
2018-01-29T06:52:58.842Z,57.97
2018-01-29T06:54:08.068Z,58.17
2018-01-29T06:55:17.085Z,57.97
2018-01-29T06:56:26.061Z,57.97
2018-01-29T06:57:34.755Z,57.78
2018-01-29T06:58:43.713Z,57.97
2018-01-29T06:59:52.943Z,58.07
2018-01-29T07:01:02.444Z,57.97
2018-01-29T07:02:11.136Z,58.07
2018-01-29T07:03:20.101Z,57.88
2018-01-29T07:04:29.597Z,57.78
2018-01-29T07:05:38.288Z,57.78
2018-01-29T07:06:47.517Z,58.07
2018-01-29T07:07:56.211Z,58.26
2018-01-29T07:09:05.433Z,57.88
2018-01-29T07:10:14.393Z,57.88
2018-01-29T07:11:23.359Z,57.78
2018-01-29T07:12:32.584Z,58.07
2018-01-29T07:13:41.276Z,57.78
2018-01-29T07:14:50.244Z,57.78
2018-01-29T07:15:59.744Z,57.88
2018-01-29T07:17:08.743Z,57.88
2018-01-29T07:18:17.975Z,58.07
2018-01-29T07:19:26.942Z,57.68
2018-01-29T07:20:36.433Z,57.97
2018-01-29T07:21:45.127Z,58.07
2018-01-29T07:22:54.092Z,57.88
2018-01-29T07:24:03.051Z,57.78
2018-01-29T07:25:12.545Z,57.78
2018-01-29T07:26:21.238Z,57.78
2018-01-29T07:27:30.196Z,57.78
2018-01-29T07:28:38.890Z,57.78
2018-01-29T07:29:47.581Z,57.97
2018-01-29T07:30:56.273Z,57.78
2018-01-29T07:32:05.230Z,57.78
2018-01-29T07:33:14.187Z,58.17
2018-01-29T07:34:23.148Z,57.78
2018-01-29T07:35:31.838Z,57.78
2018-01-29T07:36:40.795Z,57.68
2018-01-29T07:37:49.487Z,57.97
2018-01-29T07:38:58.447Z,58.55
2018-01-29T07:40:07.140Z,58.26
2018-01-29T07:41:15.835Z,58.64
2018-01-29T07:42:24.534Z,58.74
2018-01-29T07:43:33.775Z,58.84
2018-01-29T07:44:43.014Z,59.12
2018-01-29T07:45:51.719Z,58.84
2018-01-29T07:47:00.690Z,58.84
2018-01-29T07:48:09.661Z,59.12
2018-01-29T07:49:18.364Z,59.32
2018-01-29T07:50:27.066Z,59.12
2018-01-29T07:51:36.041Z,59.22
2018-01-29T07:52:45.011Z,59.12
2018-01-29T07:53:54.830Z,59.51
2018-01-29T07:55:04.067Z,59.51
2018-01-29T07:56:12.771Z,59.61
2018-01-29T07:57:21.751Z,59.61
2018-01-29T07:58:30.717Z,59.41
2018-01-29T07:59:39.690Z,59.61
2018-01-29T08:00:48.928Z,59.8
2018-01-29T08:01:58.440Z,59.8
2018-01-29T08:03:07.409Z,59.99
2018-01-29T08:04:16.377Z,59.7
2018-01-29T08:05:25.347Z,59.89
2018-01-29T08:06:34.048Z,60.28
2018-01-29T08:07:43.288Z,60.28
2018-01-29T08:08:52.259Z,60.08
2018-01-29T08:10:00.964Z,60.18
2018-01-29T08:11:09.939Z,60.08
2018-01-29T08:12:19.362Z,60.08
2018-01-29T08:13:28.332Z,60.08
2018-01-29T08:14:37.836Z,60.18
2018-01-29T08:15:47.076Z,60.28
2018-01-29T08:16:56.057Z,60.38
2018-01-29T08:18:05.295Z,59.89
2018-01-29T08:19:14.528Z,58.64
2018-01-29T08:20:23.501Z,58.84
2018-01-29T08:21:32.735Z,59.03
2018-01-29T08:22:41.720Z,58.74
2018-01-29T08:23:50.426Z,58.64
2018-01-29T08:24:59.401Z,58.94
2018-01-29T08:26:08.371Z,59.12
2018-01-29T08:27:17.611Z,59.12
2018-01-29T08:28:26.579Z,59.41
2018-01-29T08:29:35.287Z,59.51
2018-01-29T08:30:44.788Z,59.22
2018-01-29T08:31:54.034Z,59.51
2018-01-29T08:33:03.006Z,59.12
2018-01-29T08:34:11.974Z,59.22
2018-01-29T08:35:20.945Z,59.89
2018-01-29T08:36:29.915Z,59.89
2018-01-29T08:37:38.885Z,59.89
2018-01-29T08:38:48.125Z,59.89
2018-01-29T08:39:57.096Z,59.99
2018-01-29T08:41:06.066Z,59.89
2018-01-29T08:42:15.036Z,59.89
2018-01-29T08:43:24.007Z,59.89
2018-01-29T08:44:32.978Z,59.89
2018-01-29T08:45:41.954Z,59.89
2018-01-29T08:46:50.930Z,59.89
2018-01-29T08:48:00.166Z,59.99
2018-01-29T08:49:09.415Z,59.8
2018-01-29T08:50:18.386Z,59.8
2018-01-29T08:51:27.942Z,59.8
2018-01-29T08:52:36.912Z,59.8
2018-01-29T08:53:46.152Z,59.7
2018-01-29T08:54:54.891Z,59.12
2018-01-29T08:56:04.151Z,59.89
2018-01-29T08:57:12.860Z,60.18
2018-01-29T08:58:21.830Z,59.12
2018-01-29T08:59:30.810Z,60.08
2018-01-29T09:00:39.786Z,59.32
2018-01-29T09:01:49.369Z,59.32
2018-01-29T09:02:58.023Z,60.18
2018-01-29T09:04:07.260Z,60.08
2018-01-29T09:05:16.237Z,59.12
2018-01-29T09:06:25.208Z,59.41
2018-01-29T09:07:34.492Z,59.41
2018-01-29T09:08:43.196Z,59.41
2018-01-29T09:09:52.432Z,59.32
2018-01-29T09:11:01.402Z,59.41
2018-01-29T09:12:10.375Z,59.41
2018-01-29T09:13:19.927Z,59.51
2018-01-29T09:14:28.632Z,59.41
2018-01-29T09:15:37.605Z,59.51
2018-01-29T09:16:46.578Z,59.51
2018-01-29T09:17:55.281Z,59.32
2018-01-29T09:19:04.253Z,59.41
2018-01-29T09:20:12.954Z,59.51
2018-01-29T09:21:21.658Z,59.41
2018-01-29T09:22:30.895Z,59.7
2018-01-29T09:23:40.151Z,59.61
2018-01-29T09:24:48.860Z,59.61
2018-01-29T09:25:58.095Z,59.7
2018-01-29T09:27:06.800Z,59.7
2018-01-29T09:28:16.307Z,59.61
2018-01-29T09:29:25.278Z,59.51
2018-01-29T09:30:33.985Z,59.32
2018-01-29T09:31:42.955Z,59.41
2018-01-29T09:32:52.192Z,59.61
2018-01-29T09:34:01.435Z,59.41
2018-01-29T09:35:10.671Z,59.61
2018-01-29T09:36:19.642Z,59.61
2018-01-29T09:37:28.613Z,59.7
2018-01-29T09:38:37.588Z,59.7
2018-01-29T09:39:46.561Z,59.51
2018-01-29T09:40:55.539Z,59.7
2018-01-29T09:42:04.247Z,59.7
2018-01-29T09:43:13.489Z,59.51
2018-01-29T09:44:22.459Z,59.51
2018-01-29T09:45:31.430Z,59.51
2018-01-29T09:46:40.134Z,59.51
2018-01-29T09:47:48.836Z,59.51
2018-01-29T09:48:58.078Z,59.12
2018-01-29T09:50:06.782Z,59.22
2018-01-29T09:51:15.750Z,59.12
2018-01-29T09:52:25.251Z,59.32
2018-01-29T09:53:34.262Z,59.32
2018-01-29T09:54:43.198Z,59.22
2018-01-29T09:55:51.904Z,59.22
2018-01-29T09:57:00.608Z,59.32
2018-01-29T09:58:09.579Z,59.03
2018-01-29T09:59:18.817Z,59.12
2018-01-29T10:00:28.055Z,58.84
2018-01-29T10:01:37.031Z,59.12
2018-01-29T10:02:46.002Z,58.74
2018-01-29T10:03:54.707Z,59.12
2018-01-29T10:05:03.679Z,58.74
2018-01-29T10:06:12.910Z,59.12
2018-01-29T10:07:22.500Z,59.12
2018-01-29T10:08:31.194Z,58.84
2018-01-29T10:09:40.421Z,58.64
2018-01-29T10:10:49.384Z,58.94
2018-01-29T10:11:58.342Z,58.74
2018-01-29T10:13:07.031Z,58.84
2018-01-29T10:14:15.728Z,58.84
2018-01-29T10:15:25.228Z,58.84
2018-01-29T10:16:33.921Z,58.84
2018-01-29T10:17:43.153Z,58.84
2018-01-29T10:18:52.108Z,58.94
2018-01-29T10:20:01.068Z,58.94
2018-01-29T10:21:10.026Z,58.74
2018-01-29T10:22:18.719Z,58.84
2018-01-29T10:23:27.681Z,59.12
2018-01-29T10:24:36.639Z,58.74
2018-01-29T10:25:45.336Z,58.84
2018-01-29T10:26:54.294Z,58.84
2018-01-29T10:28:03.253Z,58.84
2018-01-29T10:29:12.475Z,58.84
2018-01-29T10:30:21.437Z,58.84
2018-01-29T10:31:30.459Z,58.64
2018-01-29T10:32:39.419Z,58.74
2018-01-29T10:33:48.704Z,59.03
2018-01-29T10:34:58.013Z,58.62
2018-01-29T10:36:06.923Z,58.91
2018-01-29T10:37:15.883Z,59.03
2018-01-29T10:38:25.113Z,59.03
2018-01-29T10:39:34.335Z,59.03
2018-01-29T10:40:43.024Z,59.03
2018-01-29T10:41:51.980Z,59.03
2018-01-29T10:43:00.938Z,58.74
2018-01-29T10:44:10.173Z,59.03
2018-01-29T10:45:18.870Z,59.03
2018-01-29T10:46:27.827Z,59.03
2018-01-29T10:47:36.527Z,59.03
2018-01-29T10:48:45.216Z,59.12
2018-01-29T10:49:54.976Z,59.03
2018-01-29T10:51:03.666Z,59.03
2018-01-29T10:52:12.360Z,59.12
2018-01-29T10:53:21.319Z,59.03
2018-01-29T10:54:30.358Z,58.55
2018-01-29T10:55:38.980Z,58.52
2018-01-29T10:56:47.678Z,58.91
2018-01-29T10:57:56.374Z,58.33
2018-01-29T10:59:05.604Z,59
2018-01-29T11:00:14.299Z,59.09
2018-01-29T11:01:23.567Z,59.58
2018-01-29T11:02:32.217Z,59.38
2018-01-29T11:03:41.450Z,59.77
2018-01-29T11:04:50.410Z,59.67
2018-01-29T11:05:59.910Z,59.77
2018-01-29T11:07:08.610Z,59.77
2018-01-29T11:08:18.362Z,59.67
2018-01-29T11:09:27.324Z,59.67
2018-01-29T11:10:36.554Z,59.77
2018-01-29T11:11:45.513Z,59.77
2018-01-29T11:12:54.478Z,59.89
2018-01-29T11:14:03.172Z,59.86
2018-01-29T11:15:11.867Z,59.86
2018-01-29T11:16:20.830Z,59.86
2018-01-29T11:17:29.811Z,59.86
2018-01-29T11:18:38.750Z,59.77
2018-01-29T11:19:47.973Z,59.86
2018-01-29T11:20:57.201Z,60.15
2018-01-29T11:22:05.893Z,59.19
2018-01-29T11:23:15.121Z,59.58
2018-01-29T11:24:24.086Z,59.29
2018-01-29T11:25:32.775Z,59.29
2018-01-29T11:26:42.049Z,59.19
2018-01-29T11:27:50.746Z,59.19
2018-01-29T11:28:59.442Z,59.41
2018-01-29T11:30:08.401Z,59.48
2018-01-29T11:31:17.362Z,59.48
2018-01-29T11:32:26.590Z,59.7
2018-01-29T11:33:35.814Z,59.61
2018-01-29T11:34:44.774Z,59.7
2018-01-29T11:35:54.009Z,59.67
2018-01-29T11:37:02.977Z,59.67
2018-01-29T11:38:12.202Z,58.84
2018-01-29T11:39:20.895Z,58.81
2018-01-29T11:40:29.858Z,59
2018-01-29T11:41:38.816Z,58.42
2018-01-29T11:42:48.039Z,58.33
2018-01-29T11:43:57.262Z,58.36
2018-01-29T11:45:06.812Z,58.62
2018-01-29T11:46:15.769Z,58.45
2018-01-29T11:47:24.731Z,59
2018-01-29T11:48:33.423Z,58.45
2018-01-29T11:49:42.647Z,58.71
2018-01-29T11:50:51.602Z,59.32
2018-01-29T11:52:01.090Z,59.61
2018-01-29T11:53:10.051Z,59.22
2018-01-29T11:54:18.745Z,59.89
2018-01-29T11:55:27.971Z,60.28
2018-01-29T11:56:36.929Z,60.35
2018-01-29T11:57:45.888Z,60.38
2018-01-29T11:58:54.580Z,60.72
2018-01-29T12:00:03.536Z,61.11
2018-01-29T12:01:12.226Z,60.85
2018-01-29T12:02:21.186Z,61.33
2018-01-29T12:03:30.152Z,61.33
2018-01-29T12:04:39.111Z,61.59
2018-01-29T12:05:48.066Z,61.49
2018-01-29T12:06:57.557Z,61.81
2018-01-29T12:08:06.791Z,61.3
2018-01-29T12:09:15.748Z,61.52
2018-01-29T12:10:24.712Z,61.72
2018-01-29T12:11:33.945Z,61.81
2018-01-29T12:12:43.173Z,61.81
2018-01-29T12:13:52.397Z,61.72
2018-01-29T12:15:01.096Z,61.81
2018-01-29T12:16:10.060Z,61.72
2018-01-29T12:17:18.751Z,61.69
2018-01-29T12:18:27.713Z,61.59
2018-01-29T12:19:36.677Z,61.52
2018-01-29T12:20:45.898Z,61.72
2018-01-29T12:21:55.122Z,61.52
2018-01-29T12:23:04.613Z,61.59
2018-01-29T12:24:13.842Z,61.49
2018-01-29T12:25:23.382Z,61.33
2018-01-29T12:26:32.612Z,61.62
2018-01-29T12:27:41.836Z,61.52
2018-01-29T12:28:50.531Z,61.43
2018-01-29T12:29:59.488Z,61.91
2018-01-29T12:31:08.181Z,61.78
2018-01-29T12:32:17.146Z,61.81
2018-01-29T12:33:26.371Z,61.72
2018-01-29T12:34:35.337Z,61.72
2018-01-29T12:35:44.564Z,61.69
2018-01-29T12:36:53.526Z,61.88
2018-01-29T12:38:02.486Z,61.81
2018-01-29T12:39:11.180Z,61.05
2018-01-29T12:40:20.461Z,61.81
2018-01-29T12:41:29.953Z,61.05
2018-01-29T12:42:39.183Z,61.14
2018-01-29T12:43:48.142Z,61.52
2018-01-29T12:44:57.104Z,61.33
2018-01-29T12:46:06.069Z,61.14
2018-01-29T12:47:15.570Z,61.14
2018-01-29T12:48:24.792Z,61.05
2018-01-29T12:49:33.750Z,61.24
2018-01-29T12:50:42.706Z,61.43
2018-01-29T12:51:51.935Z,61.33
2018-01-29T12:53:00.631Z,61.62
2018-01-29T12:54:09.326Z,61.81
2018-01-29T12:55:18.289Z,61.62
2018-01-29T12:56:27.249Z,61.81
2018-01-29T12:57:35.944Z,61.62
2018-01-29T12:58:44.901Z,61.62
2018-01-29T12:59:53.863Z,61.62
2018-01-29T13:01:02.554Z,60.85
2018-01-29T13:02:11.523Z,60.85
2018-01-29T13:03:20.484Z,60.53
2018-01-29T13:04:29.974Z,61.11
2018-01-29T13:05:38.670Z,61.78
2018-01-29T13:06:47.899Z,61.59
2018-01-29T13:07:56.859Z,61.98
2018-01-29T13:09:05.820Z,61.78
2018-01-29T13:10:14.512Z,61.98
2018-01-29T13:11:23.465Z,62.16
2018-01-29T13:12:32.426Z,62.07
2018-01-29T13:13:41.918Z,61.59
2018-01-29T13:14:50.881Z,62.07
2018-01-29T13:16:00.379Z,62.07
2018-01-29T13:17:09.338Z,61.49
2018-01-29T13:18:18.033Z,61.3
2018-01-29T13:19:27.264Z,61.69
2018-01-29T13:20:36.221Z,61.49
2018-01-29T13:21:44.913Z,61.49
2018-01-29T13:22:54.139Z,61.49
2018-01-29T13:24:02.832Z,61.88
2018-01-29T13:25:11.790Z,61.69
2018-01-29T13:26:20.751Z,61.69
2018-01-29T13:27:29.974Z,61.69
2018-01-29T13:28:38.666Z,61.02
2018-01-29T13:29:48.160Z,61.3
2018-01-29T13:30:57.115Z,61.21
2018-01-29T13:32:05.810Z,61.3
2018-01-29T13:33:15.081Z,61.11
2018-01-29T13:34:24.040Z,61.59
2018-01-29T13:35:32.735Z,61.49
2018-01-29T13:36:41.957Z,61.3
2018-01-29T13:37:50.918Z,61.3
2018-01-29T13:38:59.875Z,61.4
2018-01-29T13:40:09.356Z,61.4
2018-01-29T13:41:18.051Z,61.02
2018-01-29T13:42:27.287Z,61.21
2018-01-29T13:43:36.246Z,61.11
2018-01-29T13:44:44.942Z,61.4
2018-01-29T13:45:54.166Z,60.72
2018-01-29T13:47:03.126Z,60.82
2018-01-29T13:48:12.082Z,60.72
2018-01-29T13:49:21.042Z,60.63
2018-01-29T13:50:30.003Z,60.53
2018-01-29T13:51:38.699Z,60.72
2018-01-29T13:52:47.394Z,61.11
2018-01-29T13:53:56.352Z,60.92
2018-01-29T13:55:05.585Z,60.72
2018-01-29T13:56:14.813Z,60.72
2018-01-29T13:57:24.040Z,60.63
2018-01-29T13:58:32.737Z,61.4
2018-01-29T13:59:41.961Z,60.82
2018-01-29T14:00:50.651Z,61.02
2018-01-29T14:01:59.348Z,61.02
2018-01-29T14:03:08.043Z,60.82
2018-01-29T14:04:17.269Z,61.02
2018-01-29T14:05:26.236Z,61.3
2018-01-29T14:06:34.930Z,61.11
2018-01-29T14:07:43.625Z,60.92
2018-01-29T14:08:52.315Z,61.3
2018-01-29T14:10:01.536Z,60.72
2018-01-29T14:11:10.502Z,61.11
2018-01-29T14:12:19.727Z,61.02
2018-01-29T14:13:28.681Z,60.92
2018-01-29T14:14:37.904Z,61.11
2018-01-29T14:15:47.399Z,61.02
2018-01-29T14:16:56.094Z,61.02
2018-01-29T14:18:04.789Z,61.11
2018-01-29T14:19:13.482Z,61.02
2018-01-29T14:20:22.441Z,60.63
2018-01-29T14:21:31.398Z,60.44
2018-01-29T14:22:40.627Z,60.25
2018-01-29T14:23:49.324Z,60.53
2018-01-29T14:24:58.551Z,60.72
2018-01-29T14:26:07.243Z,60.72
2018-01-29T14:27:16.199Z,60.82
2018-01-29T14:28:25.162Z,60.72
2018-01-29T14:29:34.119Z,60.35
2018-01-29T14:30:42.815Z,60.53
2018-01-29T14:31:51.774Z,60.35
2018-01-29T14:33:00.735Z,60.53
2018-01-29T14:34:09.431Z,60.63
2018-01-29T14:35:18.658Z,60.63
2018-01-29T14:36:27.354Z,60.44
2018-01-29T14:37:36.048Z,60.63
2018-01-29T14:38:45.007Z,61.11
2018-01-29T14:39:53.964Z,61.11
2018-01-29T14:41:03.192Z,60.92
2018-01-29T14:42:11.888Z,61.05
2018-01-29T14:43:20.847Z,60.92
2018-01-29T14:44:29.806Z,60.82
2018-01-29T14:45:38.502Z,60.92
2018-01-29T14:46:47.466Z,61.02
2018-01-29T14:47:56.690Z,60.38
2018-01-29T14:49:05.380Z,60.25
2018-01-29T14:50:14.606Z,60.35